createdAt,value
2019-03-09T00:01:36.736Z,14.16
2019-03-09T00:04:06.577Z,14.03
2019-03-09T00:06:36.213Z,13.98
2019-03-09T00:09:07.947Z,13.85
2019-03-09T00:11:37.568Z,13.81
2019-03-09T00:14:07.175Z,13.78
2019-03-09T00:16:36.830Z,13.59
2019-03-09T00:19:06.550Z,13.40
2019-03-09T00:21:36.238Z,13.26
2019-03-09T00:24:30.814Z,13.29
2019-03-09T00:27:29.435Z,13.17
2019-03-09T00:30:15.185Z,13.12
2019-03-09T00:32:44.778Z,13.11
2019-03-09T00:35:14.463Z,13.06
2019-03-09T00:37:44.063Z,13.35
2019-03-09T00:40:14.226Z,13.26
2019-03-09T00:42:43.835Z,13.41
2019-03-09T00:45:13.638Z,13.63
2019-03-09T00:47:43.195Z,13.70
2019-03-09T00:50:12.914Z,13.86
2019-03-09T00:52:42.547Z,14.01
2019-03-09T00:55:12.785Z,14.02
2019-03-09T00:57:42.528Z,14.07
2019-03-09T01:00:18.585Z,14.14
2019-03-09T01:02:48.256Z,14.18
2019-03-09T01:05:17.878Z,14.18
2019-03-09T01:07:47.432Z,14.24
2019-03-09T01:10:17.889Z,14.33
2019-03-09T01:12:47.577Z,14.35
2019-03-09T01:15:17.465Z,14.48
2019-03-09T01:17:47.200Z,14.52
2019-03-09T01:20:17.353Z,14.27
2019-03-09T01:22:46.945Z,14.28
2019-03-09T01:25:16.659Z,14.34
2019-03-09T01:27:46.235Z,14.41
2019-03-09T01:30:17.937Z,14.88
2019-03-09T01:32:47.531Z,14.99
2019-03-09T01:35:17.159Z,14.88
2019-03-09T01:37:46.757Z,14.80
2019-03-09T01:40:16.861Z,14.64
2019-03-09T01:42:46.539Z,14.67
2019-03-09T01:45:16.601Z,14.39
2019-03-09T01:47:46.183Z,14.39
2019-03-09T01:50:15.814Z,14.36
2019-03-09T01:52:45.399Z,14.21
2019-03-09T01:55:15.154Z,14.17
2019-03-09T01:57:44.775Z,14.00
2019-03-09T02:00:15.231Z,14.33
2019-03-09T02:02:44.988Z,14.57
2019-03-09T02:05:15.239Z,14.66
2019-03-09T02:07:44.930Z,14.84
2019-03-09T02:10:15.417Z,14.76
2019-03-09T02:12:45.312Z,15.35
2019-03-09T02:15:15.719Z,14.98
2019-03-09T02:17:45.442Z,14.04
2019-03-09T02:20:15.305Z,13.53
2019-03-09T02:22:44.911Z,13.17
2019-03-09T02:25:14.714Z,12.97
2019-03-09T02:27:44.320Z,13.13
2019-03-09T02:30:14.161Z,13.30
2019-03-09T02:32:43.758Z,13.37
2019-03-09T02:35:13.461Z,13.59
2019-03-09T02:37:43.104Z,14.07
2019-03-09T02:40:16.537Z,14.17
2019-03-09T02:42:46.106Z,14.05
2019-03-09T02:45:17.056Z,14.51
2019-03-09T02:47:46.710Z,14.17
2019-03-09T02:50:16.332Z,14.16
2019-03-09T02:52:46.043Z,14.48
2019-03-09T02:55:15.855Z,14.91
2019-03-09T02:57:45.680Z,14.85
2019-03-09T03:00:16.988Z,14.98
2019-03-09T03:03:05.936Z,14.98
2019-03-09T03:05:35.511Z,14.73
2019-03-09T03:08:05.146Z,14.62
2019-03-09T03:10:34.832Z,14.82
2019-03-09T03:13:04.440Z,14.75
2019-03-09T03:15:35.675Z,14.14
2019-03-09T03:18:05.485Z,13.32
2019-03-09T03:20:35.180Z,13.15
2019-03-09T03:23:04.862Z,12.85
2019-03-09T03:25:34.474Z,12.83
2019-03-09T03:28:04.089Z,12.75
2019-03-09T03:30:33.730Z,12.51
2019-03-09T03:33:03.504Z,12.58
2019-03-09T03:35:33.169Z,12.42
2019-03-09T03:38:02.789Z,12.47
2019-03-09T03:40:32.357Z,12.61
2019-03-09T03:43:02.035Z,12.80
2019-03-09T03:45:31.635Z,12.97
2019-03-09T03:48:01.229Z,13.10
2019-03-09T03:50:30.848Z,13.50
2019-03-09T03:53:00.421Z,13.74
2019-03-09T03:55:30.126Z,14.03
2019-03-09T03:57:59.764Z,14.21
2019-03-09T04:00:29.572Z,14.44
2019-03-09T04:02:59.388Z,14.63
2019-03-09T04:05:29.106Z,14.51
2019-03-09T04:07:58.973Z,14.29
2019-03-09T04:10:28.782Z,14.36
2019-03-09T04:12:58.921Z,14.18
2019-03-09T04:15:28.499Z,13.87
2019-03-09T04:17:58.094Z,13.94
2019-03-09T04:20:27.806Z,13.88
2019-03-09T04:22:57.459Z,13.51
2019-03-09T04:25:27.083Z,13.34
2019-03-09T04:27:56.734Z,13.05
2019-03-09T04:30:26.331Z,12.78
2019-03-09T04:32:56.045Z,12.21
2019-03-09T04:35:25.789Z,11.98
2019-03-09T04:37:55.430Z,12.07
2019-03-09T04:40:25.034Z,12.05
2019-03-09T04:42:54.638Z,11.84
2019-03-09T04:45:24.320Z,11.93
2019-03-09T04:47:53.952Z,12.16
2019-03-09T04:50:23.557Z,12.39
2019-03-09T04:52:53.204Z,12.53
2019-03-09T04:55:22.794Z,12.92
2019-03-09T04:57:52.476Z,13.12
2019-03-09T05:00:22.103Z,12.85
2019-03-09T05:02:51.830Z,12.76
2019-03-09T05:05:21.455Z,12.96
2019-03-09T05:08:33.806Z,12.99
2019-03-09T05:11:09.947Z,13.13
2019-03-09T05:13:49.980Z,12.96
2019-03-09T05:16:19.611Z,13.19
2019-03-09T05:18:49.238Z,13.12
2019-03-09T05:21:18.925Z,13.26
2019-03-09T05:23:48.538Z,13.52
2019-03-09T05:26:18.197Z,13.92
2019-03-09T05:28:47.818Z,13.88
2019-03-09T05:31:17.423Z,14.05
2019-03-09T05:33:47.091Z,14.57
2019-03-09T05:36:16.699Z,14.56
2019-03-09T05:38:46.324Z,13.88
2019-03-09T05:41:15.994Z,13.67
2019-03-09T05:43:45.561Z,14.25
2019-03-09T05:46:15.243Z,14.70
2019-03-09T05:48:44.893Z,14.65
2019-03-09T05:51:14.481Z,14.49
2019-03-09T05:53:44.099Z,14.78
2019-03-09T05:56:13.738Z,14.95
2019-03-09T05:58:43.560Z,15.46
2019-03-09T06:01:13.192Z,15.34
2019-03-09T06:03:42.818Z,15.62
2019-03-09T06:06:17.461Z,15.88
2019-03-09T06:08:48.043Z,16.31
2019-03-09T06:11:17.807Z,16.36
2019-03-09T06:13:47.390Z,15.88
2019-03-09T06:16:17.052Z,15.25
2019-03-09T06:18:46.704Z,15.32
2019-03-09T06:21:16.310Z,15.05
2019-03-09T06:23:46.127Z,14.93
2019-03-09T06:26:15.817Z,14.97
2019-03-09T06:28:45.468Z,15.01
2019-03-09T06:31:15.108Z,15.09
2019-03-09T06:33:46.233Z,15.47
2019-03-09T06:37:05.010Z,15.57
2019-03-09T06:39:40.227Z,16.09
2019-03-09T06:42:35.128Z,16.54
2019-03-09T06:45:05.255Z,17.00
2019-03-09T06:47:34.904Z,17.11
2019-03-09T06:50:04.771Z,17.02
2019-03-09T06:52:34.400Z,16.11
2019-03-09T06:55:04.179Z,15.69
2019-03-09T06:57:33.849Z,15.53
2019-03-09T07:00:20.133Z,15.83
2019-03-09T07:02:49.737Z,15.43
2019-03-09T07:05:19.351Z,15.76
2019-03-09T07:07:49.047Z,15.29
2019-03-09T07:10:18.657Z,15.46
2019-03-09T07:12:48.319Z,15.69
2019-03-09T07:15:29.445Z,15.69
2019-03-09T07:18:01.646Z,15.95
2019-03-09T07:20:31.253Z,16.57
2019-03-09T07:23:00.846Z,16.46
2019-03-09T07:25:30.465Z,16.88
2019-03-09T07:28:11.028Z,17.08
2019-03-09T07:30:40.858Z,17.14
2019-03-09T07:33:10.459Z,17.49
2019-03-09T07:35:40.189Z,17.94
2019-03-09T07:38:09.782Z,18.10
2019-03-09T07:40:39.482Z,18.19
2019-03-09T07:43:09.268Z,18.52
2019-03-09T07:45:38.908Z,18.81
2019-03-09T07:48:08.638Z,18.72
2019-03-09T07:50:38.312Z,18.81
2019-03-09T07:53:07.903Z,18.81
2019-03-09T07:55:37.595Z,18.89
2019-03-09T07:58:07.713Z,19.01
2019-03-09T08:00:37.437Z,19.16
2019-03-09T08:03:07.093Z,19.42
2019-03-09T08:05:36.684Z,19.31
2019-03-09T08:08:06.398Z,19.55
2019-03-09T08:10:36.001Z,19.51
2019-03-09T08:13:05.792Z,19.62
2019-03-09T08:15:35.439Z,19.74
2019-03-09T08:18:05.056Z,19.65
2019-03-09T08:20:34.747Z,19.81
2019-03-09T08:23:04.444Z,19.81
2019-03-09T08:25:34.042Z,20.04
2019-03-09T08:28:03.715Z,20.20
2019-03-09T08:30:33.377Z,19.79
2019-03-09T08:33:03.015Z,20.04
2019-03-09T08:35:32.606Z,20.11
2019-03-09T08:38:02.282Z,20.37
2019-03-09T08:40:31.945Z,20.41
2019-03-09T08:43:01.682Z,20.60
2019-03-09T08:45:31.367Z,20.53
2019-03-09T08:48:00.976Z,20.50
2019-03-09T08:50:30.571Z,20.65
2019-03-09T08:53:00.216Z,20.75
2019-03-09T08:55:29.851Z,20.85
2019-03-09T08:57:59.479Z,20.88
2019-03-09T09:00:31.284Z,21.31
2019-03-09T09:03:01.155Z,21.25
2019-03-09T09:05:31.020Z,21.59
2019-03-09T09:08:00.776Z,21.91
2019-03-09T09:10:30.362Z,21.96
2019-03-09T09:13:00.049Z,21.71
2019-03-09T09:15:29.705Z,21.59
2019-03-09T09:17:59.306Z,21.82
2019-03-09T09:20:28.937Z,21.91
2019-03-09T09:22:58.538Z,21.92
2019-03-09T09:25:28.223Z,21.60
2019-03-09T09:27:57.856Z,21.72
2019-03-09T09:30:28.111Z,21.83
2019-03-09T09:32:57.793Z,21.62
2019-03-09T09:35:27.573Z,21.54
2019-03-09T09:37:57.197Z,21.64
2019-03-09T09:40:27.129Z,21.54
2019-03-09T09:42:56.955Z,21.42
2019-03-09T09:45:26.782Z,21.54
2019-03-09T09:47:56.440Z,21.75
2019-03-09T09:50:26.037Z,22.14
2019-03-09T09:52:55.739Z,22.08
2019-03-09T09:55:25.409Z,22.36
2019-03-09T09:57:55.028Z,22.37
2019-03-09T10:00:25.928Z,22.40
2019-03-09T10:02:55.568Z,22.65
2019-03-09T10:05:25.308Z,22.45
2019-03-09T10:07:54.998Z,22.37
2019-03-09T10:10:25.006Z,22.75
2019-03-09T10:12:55.976Z,22.76
2019-03-09T10:15:26.738Z,22.52
2019-03-09T10:17:56.394Z,22.61
2019-03-09T10:20:26.127Z,22.42
2019-03-09T10:23:03.695Z,22.58
2019-03-09T10:25:27.109Z,22.44
2019-03-09T10:27:56.700Z,22.38
2019-03-09T10:30:26.437Z,22.28
2019-03-09T10:32:56.089Z,22.60
2019-03-09T10:35:25.664Z,22.61
2019-03-09T10:37:55.266Z,22.86
2019-03-09T10:40:24.907Z,23.46
2019-03-09T10:42:54.531Z,23.48
2019-03-09T10:45:24.393Z,23.70
2019-03-09T10:47:54.042Z,24.10
2019-03-09T10:50:25.864Z,23.92
2019-03-09T10:52:55.071Z,23.32
2019-03-09T10:55:24.740Z,24.26
2019-03-09T10:57:54.375Z,23.92
2019-03-09T11:00:26.519Z,24.42
2019-03-09T11:02:56.207Z,24.51
2019-03-09T11:05:26.001Z,24.48
2019-03-09T11:07:55.820Z,23.98
2019-03-09T11:10:25.588Z,24.00
2019-03-09T11:12:55.234Z,24.38
2019-03-09T11:15:24.817Z,23.79
2019-03-09T11:17:54.461Z,24.11
2019-03-09T11:20:24.406Z,24.20
2019-03-09T11:22:54.060Z,23.88
2019-03-09T11:25:23.639Z,23.94
2019-03-09T11:27:53.250Z,23.92
2019-03-09T11:30:26.244Z,23.79
2019-03-09T11:32:55.907Z,23.62
2019-03-09T11:35:25.526Z,23.69
2019-03-09T11:37:55.160Z,23.64
2019-03-09T11:40:24.736Z,23.62
2019-03-09T11:42:54.346Z,23.76
2019-03-09T11:45:23.948Z,23.92
2019-03-09T11:47:53.557Z,24.24
2019-03-09T11:50:23.184Z,24.55
2019-03-09T11:52:52.884Z,23.89
2019-03-09T11:55:22.514Z,23.98
2019-03-09T11:57:52.123Z,24.21
2019-03-09T12:00:25.841Z,24.23
2019-03-09T12:02:55.569Z,24.61
2019-03-09T12:05:25.173Z,24.49
2019-03-09T12:07:54.980Z,24.07
2019-03-09T12:10:24.665Z,24.12
2019-03-09T12:12:54.304Z,23.83
2019-03-09T12:15:23.904Z,23.62
2019-03-09T12:17:53.645Z,23.73
2019-03-09T12:20:25.367Z,24.13
2019-03-09T12:23:00.961Z,23.89
2019-03-09T12:25:26.408Z,23.75
2019-03-09T12:27:56.023Z,23.86
2019-03-09T12:30:25.670Z,23.82
2019-03-09T12:32:55.358Z,23.72
2019-03-09T12:35:25.038Z,23.63
2019-03-09T12:37:54.695Z,23.52
2019-03-09T12:40:24.334Z,23.60
2019-03-09T12:42:54.060Z,23.60
2019-03-09T12:45:23.790Z,23.72
2019-03-09T12:47:53.459Z,23.41
2019-03-09T12:50:23.144Z,23.53
2019-03-09T12:52:52.781Z,23.45
2019-03-09T12:55:22.408Z,23.56
2019-03-09T12:57:52.058Z,23.58
2019-03-09T13:00:21.959Z,23.07
2019-03-09T13:02:51.598Z,23.18
2019-03-09T13:05:21.647Z,23.08
2019-03-09T13:07:51.264Z,23.02
2019-03-09T13:10:21.066Z,23.02
2019-03-09T13:12:50.708Z,23.07
2019-03-09T13:15:20.561Z,22.86
2019-03-09T13:17:50.195Z,23.07
2019-03-09T13:20:19.913Z,23.12
2019-03-09T13:22:49.581Z,23.37
2019-03-09T13:25:19.240Z,23.77
2019-03-09T13:27:48.907Z,23.97
2019-03-09T13:30:19.871Z,23.96
2019-03-09T13:32:49.687Z,23.97
2019-03-09T13:35:19.301Z,23.90
2019-03-09T13:37:49.046Z,23.81
2019-03-09T13:40:18.788Z,24.14
2019-03-09T13:42:48.452Z,24.45
2019-03-09T13:45:18.252Z,24.97
2019-03-09T13:47:47.853Z,25.55
2019-03-09T13:50:17.524Z,25.79
2019-03-09T13:52:47.189Z,25.61
2019-03-09T13:55:16.851Z,25.55
2019-03-09T13:57:46.449Z,25.36
2019-03-09T14:00:16.322Z,25.33
2019-03-09T14:02:46.050Z,25.65
2019-03-09T14:05:16.000Z,25.14
2019-03-09T14:07:45.722Z,24.42
2019-03-09T14:10:15.637Z,24.51
2019-03-09T14:12:45.254Z,24.42
2019-03-09T14:15:15.296Z,24.81
2019-03-09T14:17:44.935Z,25.09
2019-03-09T14:20:14.880Z,24.82
2019-03-09T14:22:44.572Z,24.81
2019-03-09T14:25:15.051Z,24.85
2019-03-09T14:27:44.780Z,24.63
2019-03-09T14:30:15.307Z,24.64
2019-03-09T14:32:44.979Z,24.75
2019-03-09T14:35:14.840Z,24.39
2019-03-09T14:37:44.710Z,24.45
2019-03-09T14:40:15.017Z,24.54
2019-03-09T14:42:44.810Z,24.64
2019-03-09T14:45:16.301Z,24.43
2019-03-09T14:47:46.037Z,24.27
2019-03-09T14:50:16.294Z,24.24
2019-03-09T14:52:46.222Z,24.30
2019-03-09T14:55:15.887Z,24.47
2019-03-09T14:57:45.489Z,24.24
2019-03-09T15:00:17.678Z,24.48
2019-03-09T15:02:47.278Z,24.37
2019-03-09T15:05:16.963Z,24.45
2019-03-09T15:07:46.597Z,24.30
2019-03-09T15:10:16.751Z,23.83
2019-03-09T15:12:46.462Z,23.84
2019-03-09T15:15:16.448Z,23.60
2019-03-09T15:17:46.047Z,23.53
2019-03-09T15:20:16.856Z,23.57
2019-03-09T15:22:46.530Z,23.46
2019-03-09T15:25:16.300Z,23.25
2019-03-09T15:27:46.014Z,23.26
2019-03-09T15:30:16.486Z,23.21
2019-03-09T15:32:46.094Z,23.25
2019-03-09T15:35:16.773Z,22.71
2019-03-09T15:37:46.575Z,23.05
2019-03-09T15:40:17.425Z,23.04
2019-03-09T15:42:47.481Z,22.69
2019-03-09T15:45:17.463Z,22.52
2019-03-09T15:47:47.215Z,22.48
2019-03-09T15:50:17.059Z,22.46
2019-03-09T15:52:46.833Z,22.17
2019-03-09T15:55:16.740Z,21.90
2019-03-09T15:57:46.389Z,22.20
2019-03-09T16:00:17.921Z,21.71
2019-03-09T16:02:47.598Z,21.85
2019-03-09T16:05:17.219Z,21.99
2019-03-09T16:07:46.954Z,21.90
2019-03-09T16:10:16.859Z,21.84
2019-03-09T16:12:46.674Z,21.99
2019-03-09T16:15:16.517Z,21.68
2019-03-09T16:17:46.122Z,21.67
2019-03-09T16:20:16.730Z,21.54
2019-03-09T16:22:46.462Z,21.38
2019-03-09T16:25:16.304Z,21.33
2019-03-09T16:27:45.972Z,21.28
2019-03-09T16:30:18.072Z,21.38
2019-03-09T16:32:47.632Z,21.25
2019-03-09T16:35:17.409Z,21.20
2019-03-09T16:37:47.044Z,21.28
2019-03-09T16:40:16.761Z,21.14
2019-03-09T16:42:46.473Z,21.02
2019-03-09T16:45:16.279Z,21.05
2019-03-09T16:47:45.893Z,20.96
2019-03-09T16:50:15.722Z,21.04
2019-03-09T16:52:45.540Z,21.12
2019-03-09T16:55:15.575Z,21.19
2019-03-09T16:57:45.219Z,20.97
2019-03-09T17:00:17.340Z,20.92
2019-03-09T17:02:46.986Z,20.65
2019-03-09T17:05:16.806Z,20.63
2019-03-09T17:07:46.502Z,20.66
2019-03-09T17:10:18.786Z,20.41
2019-03-09T17:12:48.178Z,20.50
2019-03-09T17:15:17.850Z,20.44
2019-03-09T17:17:47.561Z,20.41
2019-03-09T17:20:17.468Z,20.29
2019-03-09T17:22:47.222Z,20.21
2019-03-09T17:25:17.167Z,20.20
2019-03-09T17:27:46.808Z,20.03
2019-03-09T17:30:18.915Z,20.02
2019-03-09T17:32:48.677Z,19.99
2019-03-09T17:35:18.300Z,20.13
2019-03-09T17:37:47.910Z,20.10
2019-03-09T17:40:17.789Z,20.10
2019-03-09T17:42:47.542Z,19.92
2019-03-09T17:45:18.688Z,19.85
2019-03-09T17:47:48.364Z,19.83
2019-03-09T17:50:18.100Z,19.87
2019-03-09T17:52:47.695Z,19.86
2019-03-09T17:55:17.346Z,19.42
2019-03-09T17:57:47.006Z,19.69
2019-03-09T18:00:19.095Z,19.77
2019-03-09T18:02:48.717Z,19.73
2019-03-09T18:05:19.726Z,19.75
2019-03-09T18:07:49.681Z,19.89
2019-03-09T18:10:26.452Z,19.87
2019-03-09T18:12:56.179Z,20.02
2019-03-09T18:15:25.793Z,19.98
2019-03-09T18:17:55.413Z,20.03
2019-03-09T18:20:25.047Z,20.00
2019-03-09T18:22:54.696Z,19.98
2019-03-09T18:25:24.377Z,19.98
2019-03-09T18:27:53.978Z,19.92
2019-03-09T18:30:23.596Z,19.82
2019-03-09T18:32:53.259Z,19.72
2019-03-09T18:35:22.854Z,19.66
2019-03-09T18:37:52.530Z,19.61
2019-03-09T18:40:22.196Z,19.45
2019-03-09T18:42:51.791Z,19.37
2019-03-09T18:45:21.421Z,19.31
2019-03-09T18:47:51.048Z,19.22
2019-03-09T18:50:20.832Z,19.10
2019-03-09T18:52:50.516Z,19.08
2019-03-09T18:55:20.162Z,19.04
2019-03-09T18:57:49.880Z,19.00
2019-03-09T19:00:19.517Z,18.55
2019-03-09T19:02:49.302Z,19.10
2019-03-09T19:05:19.179Z,19.17
2019-03-09T19:07:48.809Z,19.13
2019-03-09T19:10:18.499Z,19.05
2019-03-09T19:12:48.112Z,19.14
2019-03-09T19:15:18.038Z,19.05
2019-03-09T19:17:47.908Z,18.96
2019-03-09T19:20:17.786Z,19.03
2019-03-09T19:22:47.399Z,19.00
2019-03-09T19:25:17.321Z,18.95
2019-03-09T19:27:47.022Z,18.92
2019-03-09T19:30:16.958Z,18.93
2019-03-09T19:32:46.640Z,19.54
2019-03-09T19:35:16.408Z,18.79
2019-03-09T19:37:46.128Z,18.96
2019-03-09T19:40:16.151Z,18.54
2019-03-09T19:42:45.887Z,18.32
2019-03-09T19:45:15.997Z,18.15
2019-03-09T19:47:45.870Z,18.00
2019-03-09T19:50:17.219Z,18.96
2019-03-09T19:52:46.924Z,17.77
2019-03-09T19:55:16.871Z,17.76
2019-03-09T19:57:46.591Z,17.74
2019-03-09T20:00:16.281Z,17.67
2019-03-09T20:02:45.936Z,17.71
2019-03-09T20:05:15.695Z,17.70
2019-03-09T20:07:45.312Z,17.62
2019-03-09T20:10:15.190Z,17.87
2019-03-09T20:12:44.836Z,18.05
2019-03-09T20:15:14.930Z,17.89
2019-03-09T20:17:45.860Z,17.89
2019-03-09T20:20:16.317Z,17.85
2019-03-09T20:22:46.111Z,17.74
2019-03-09T20:25:15.903Z,18.09
2019-03-09T20:27:45.450Z,17.91
2019-03-09T20:30:16.580Z,18.02
2019-03-09T20:32:46.274Z,17.84
2019-03-09T20:35:15.999Z,17.78
2019-03-09T20:37:45.742Z,17.62
2019-03-09T20:40:15.625Z,17.16
2019-03-09T20:42:45.232Z,17.00
2019-03-09T20:45:15.151Z,16.95
2019-03-09T20:47:44.808Z,16.60
2019-03-09T20:50:15.404Z,16.46
2019-03-09T20:52:45.040Z,16.41
2019-03-09T20:55:14.759Z,16.46
2019-03-09T20:57:44.419Z,16.59
2019-03-09T21:00:15.967Z,16.63
2019-03-09T21:02:45.574Z,16.76
2019-03-09T21:05:15.399Z,16.71
2019-03-09T21:07:45.059Z,16.86
2019-03-09T21:10:15.911Z,16.89
2019-03-09T21:12:59.558Z,16.87
2019-03-09T21:15:29.253Z,17.18
2019-03-09T21:17:58.895Z,17.15
2019-03-09T21:20:28.487Z,17.25
2019-03-09T21:22:58.079Z,17.29
2019-03-09T21:25:27.851Z,17.56
2019-03-09T21:27:57.451Z,17.24
2019-03-09T21:30:27.086Z,17.55
2019-03-09T21:32:56.782Z,17.30
2019-03-09T21:35:26.373Z,17.25
2019-03-09T21:37:56.033Z,17.34
2019-03-09T21:40:25.641Z,17.20
2019-03-09T21:42:55.276Z,16.79
2019-03-09T21:45:25.001Z,16.72
2019-03-09T21:47:54.601Z,16.79
2019-03-09T21:50:24.295Z,16.81
2019-03-09T21:52:53.927Z,16.99
2019-03-09T21:55:23.511Z,17.00
2019-03-09T21:57:53.254Z,17.01
2019-03-09T22:00:22.973Z,16.85
2019-03-09T22:02:52.608Z,16.82
2019-03-09T22:05:22.222Z,16.90
2019-03-09T22:07:51.816Z,16.79
2019-03-09T22:10:21.483Z,16.86
2019-03-09T22:12:51.147Z,16.82
2019-03-09T22:15:20.881Z,16.94
2019-03-09T22:17:50.507Z,16.99
2019-03-09T22:20:20.727Z,17.05
2019-03-09T22:22:50.484Z,17.15
2019-03-09T22:25:21.004Z,17.19
2019-03-09T22:27:50.759Z,17.12
2019-03-09T22:30:20.435Z,17.25
2019-03-09T22:32:50.039Z,17.19
2019-03-09T22:35:19.710Z,17.20
2019-03-09T22:37:49.320Z,17.24
2019-03-09T22:40:18.924Z,17.38
2019-03-09T22:42:48.572Z,17.33
2019-03-09T22:45:18.192Z,17.33
2019-03-09T22:47:47.868Z,17.29
2019-03-09T22:50:17.591Z,17.44
2019-03-09T22:52:47.317Z,17.32
2019-03-09T22:55:17.227Z,17.45
2019-03-09T22:57:46.965Z,17.17
2019-03-09T23:00:17.936Z,17.11
2019-03-09T23:02:47.526Z,17.11
2019-03-09T23:05:17.230Z,17.04
2019-03-09T23:07:46.827Z,17.11
2019-03-09T23:10:17.101Z,17.02
2019-03-09T23:12:46.760Z,17.12
2019-03-09T23:15:16.804Z,17.12
2019-03-09T23:17:46.488Z,17.37
2019-03-09T23:20:16.206Z,17.34
2019-03-09T23:22:45.830Z,17.38
2019-03-09T23:25:15.734Z,17.35
2019-03-09T23:27:45.432Z,17.21
2019-03-09T23:30:16.582Z,17.12
2019-03-09T23:32:46.176Z,17.16
2019-03-09T23:35:16.495Z,16.87
2019-03-09T23:37:46.551Z,17.01
2019-03-09T23:40:17.032Z,16.90
2019-03-09T23:42:46.646Z,16.89
2019-03-09T23:45:16.852Z,17.03
2019-03-09T23:47:46.607Z,16.82
2019-03-09T23:50:17.017Z,16.82
2019-03-09T23:52:47.148Z,16.70
2019-03-09T23:55:22.415Z,16.69
2019-03-09T23:57:49.455Z,16.64
